sensor_id;sensor_type;location;lat;lon;timestamp;P1;durP1;ratioP1;P2;durP2;ratioP2
28353;SDS011;15603;50.878;8.036;2023-05-08T00:00:37;16.30;;;7.85;;
28353;SDS011;15603;50.878;8.036;2023-05-08T00:03:04;12.63;;;8.63;;
28353;SDS011;15603;50.878;8.036;2023-05-08T00:05:32;12.88;;;8.38;;
28353;SDS011;15603;50.878;8.036;2023-05-08T00:07:59;10.57;;;7.95;;
28353;SDS011;15603;50.878;8.036;2023-05-08T00:10:27;16.20;;;7.45;;
28353;SDS011;15603;50.878;8.036;2023-05-08T00:12:55;12.95;;;8.02;;
28353;SDS011;15603;50.878;8.036;2023-05-08T00:15:22;16.92;;;8.57;;
28353;SDS011;15603;50.878;8.036;2023-05-08T00:17:49;22.08;;;9.30;;
28353;SDS011;15603;50.878;8.036;2023-05-08T00:20:16;13.07;;;7.68;;
28353;SDS011;15603;50.878;8.036;2023-05-08T00:22:43;13.20;;;9.15;;
28353;SDS011;15603;50.878;8.036;2023-05-08T00:25:10;11.98;;;8.25;;
28353;SDS011;15603;50.878;8.036;2023-05-08T00:27:37;17.95;;;10.02;;
28353;SDS011;15603;50.878;8.036;2023-05-08T00:30:05;12.85;;;8.30;;
28353;SDS011;15603;50.878;8.036;2023-05-08T00:32:33;12.48;;;7.43;;
28353;SDS011;15603;50.878;8.036;2023-05-08T00:35:00;12.48;;;8.20;;
28353;SDS011;15603;50.878;8.036;2023-05-08T00:37:27;11.15;;;8.18;;
28353;SDS011;15603;50.878;8.036;2023-05-08T00:39:54;11.30;;;9.10;;
28353;SDS011;15603;50.878;8.036;2023-05-08T00:42:21;13.93;;;7.82;;
28353;SDS011;15603;50.878;8.036;2023-05-08T00:44:48;12.20;;;8.60;;
28353;SDS011;15603;50.878;8.036;2023-05-08T00:47:15;13.18;;;8.48;;
28353;SDS011;15603;50.878;8.036;2023-05-08T00:49:42;14.25;;;7.65;;
28353;SDS011;15603;50.878;8.036;2023-05-08T00:52:10;15.90;;;8.30;;
28353;SDS011;15603;50.878;8.036;2023-05-08T00:54:38;11.23;;;7.80;;
28353;SDS011;15603;50.878;8.036;2023-05-08T00:57:06;13.27;;;7.97;;
28353;SDS011;15603;50.878;8.036;2023-05-08T00:59:34;14.52;;;7.63;;
28353;SDS011;15603;50.878;8.036;2023-05-08T01:02:02;11.48;;;8.63;;
28353;SDS011;15603;50.878;8.036;2023-05-08T01:04:29;10.05;;;7.85;;
28353;SDS011;15603;50.878;8.036;2023-05-08T01:06:57;16.50;;;9.88;;
28353;SDS011;15603;50.878;8.036;2023-05-08T01:09:25;13.40;;;7.97;;
28353;SDS011;15603;50.878;8.036;2023-05-08T01:12:06;11.80;;;8.20;;
28353;SDS011;15603;50.878;8.036;2023-05-08T01:23:16;13.13;;;7.47;;
28353;SDS011;15603;50.878;8.036;2023-05-08T01:34:23;11.52;;;8.07;;
28353;SDS011;15603;50.878;8.036;2023-05-08T01:37:07;11.57;;;7.90;;
28353;SDS011;15603;50.878;8.036;2023-05-08T01:44:57;11.30;;;7.25;;
28353;SDS011;15603;50.878;8.036;2023-05-08T01:47:29;10.18;;;7.18;;
28353;SDS011;15603;50.878;8.036;2023-05-08T01:50:03;22.40;;;7.72;;
28353;SDS011;15603;50.878;8.036;2023-05-08T01:55:09;12.00;;;8.07;;
28353;SDS011;15603;50.878;8.036;2023-05-08T01:57:39;11.77;;;8.13;;
28353;SDS011;15603;50.878;8.036;2023-05-08T02:00:12;13.48;;;8.82;;
28353;SDS011;15603;50.878;8.036;2023-05-08T02:02:42;11.70;;;7.47;;
28353;SDS011;15603;50.878;8.036;2023-05-08T02:05:11;11.90;;;8.05;;
28353;SDS011;15603;50.878;8.036;2023-05-08T02:07:39;15.30;;;8.85;;
28353;SDS011;15603;50.878;8.036;2023-05-08T02:10:09;12.00;;;8.38;;
28353;SDS011;15603;50.878;8.036;2023-05-08T02:12:39;10.32;;;7.72;;
28353;SDS011;15603;50.878;8.036;2023-05-08T02:15:09;12.77;;;8.68;;
28353;SDS011;15603;50.878;8.036;2023-05-08T02:17:39;15.88;;;7.70;;
28353;SDS011;15603;50.878;8.036;2023-05-08T02:20:08;14.07;;;8.25;;
28353;SDS011;15603;50.878;8.036;2023-05-08T02:25:11;10.85;;;7.20;;
28353;SDS011;15603;50.878;8.036;2023-05-08T02:27:41;11.50;;;7.57;;
28353;SDS011;15603;50.878;8.036;2023-05-08T02:30:14;13.43;;;7.97;;
28353;SDS011;15603;50.878;8.036;2023-05-08T02:32:44;11.82;;;8.73;;
28353;SDS011;15603;50.878;8.036;2023-05-08T02:35:12;11.35;;;8.07;;
28353;SDS011;15603;50.878;8.036;2023-05-08T02:37:43;10.13;;;7.85;;
28353;SDS011;15603;50.878;8.036;2023-05-08T02:40:13;12.63;;;8.07;;
28353;SDS011;15603;50.878;8.036;2023-05-08T02:42:43;17.38;;;7.40;;
28353;SDS011;15603;50.878;8.036;2023-05-08T02:45:11;9.80;;;7.30;;
28353;SDS011;15603;50.878;8.036;2023-05-08T02:50:37;11.38;;;7.78;;
28353;SDS011;15603;50.878;8.036;2023-05-08T02:53:11;12.82;;;8.10;;
28353;SDS011;15603;50.878;8.036;2023-05-08T02:55:53;9.55;;;7.53;;
28353;SDS011;15603;50.878;8.036;2023-05-08T02:58:27;11.95;;;7.65;;
28353;SDS011;15603;50.878;8.036;2023-05-08T03:01:04;9.75;;;7.82;;
28353;SDS011;15603;50.878;8.036;2023-05-08T03:03:41;10.48;;;8.10;;
28353;SDS011;15603;50.878;8.036;2023-05-08T03:06:12;13.80;;;8.95;;
28353;SDS011;15603;50.878;8.036;2023-05-08T03:08:40;12.13;;;8.35;;
28353;SDS011;15603;50.878;8.036;2023-05-08T03:11:17;12.57;;;7.95;;
28353;SDS011;15603;50.878;8.036;2023-05-08T03:13:48;18.30;;;8.35;;
28353;SDS011;15603;50.878;8.036;2023-05-08T03:16:17;12.38;;;9.10;;
28353;SDS011;15603;50.878;8.036;2023-05-08T03:18:53;15.93;;;8.73;;
28353;SDS011;15603;50.878;8.036;2023-05-08T03:21:26;15.55;;;8.40;;
28353;SDS011;15603;50.878;8.036;2023-05-08T03:23:56;11.50;;;8.30;;
28353;SDS011;15603;50.878;8.036;2023-05-08T03:26:25;13.10;;;8.35;;
28353;SDS011;15603;50.878;8.036;2023-05-08T03:28:53;15.55;;;8.75;;
28353;SDS011;15603;50.878;8.036;2023-05-08T03:31:27;12.45;;;8.20;;
28353;SDS011;15603;50.878;8.036;2023-05-08T03:33:55;13.45;;;8.73;;
28353;SDS011;15603;50.878;8.036;2023-05-08T03:36:24;15.50;;;8.27;;
28353;SDS011;15603;50.878;8.036;2023-05-08T03:38:52;13.98;;;9.10;;
28353;SDS011;15603;50.878;8.036;2023-05-08T03:41:20;15.85;;;9.27;;
28353;SDS011;15603;50.878;8.036;2023-05-08T03:43:48;14.43;;;8.93;;
28353;SDS011;15603;50.878;8.036;2023-05-08T03:46:16;14.20;;;9.70;;
28353;SDS011;15603;50.878;8.036;2023-05-08T03:48:45;12.13;;;8.63;;
28353;SDS011;15603;50.878;8.036;2023-05-08T03:51:14;11.50;;;8.50;;
28353;SDS011;15603;50.878;8.036;2023-05-08T03:53:41;25.23;;;9.57;;
28353;SDS011;15603;50.878;8.036;2023-05-08T03:56:09;13.45;;;9.50;;
28353;SDS011;15603;50.878;8.036;2023-05-08T04:01:36;12.82;;;9.73;;
28353;SDS011;15603;50.878;8.036;2023-05-08T04:04:57;36.35;;;10.23;;
28353;SDS011;15603;50.878;8.036;2023-05-08T04:07:02;12.88;;;8.93;;
28353;SDS011;15603;50.878;8.036;2023-05-08T04:15:19;14.98;;;10.52;;
28353;SDS011;15603;50.878;8.036;2023-05-08T04:17:54;14.90;;;8.77;;
28353;SDS011;15603;50.878;8.036;2023-05-08T04:20:26;12.98;;;8.88;;
28353;SDS011;15603;50.878;8.036;2023-05-08T04:22:55;11.27;;;7.72;;
28353;SDS011;15603;50.878;8.036;2023-05-08T04:25:24;15.23;;;9.15;;
28353;SDS011;15603;50.878;8.036;2023-05-08T04:27:52;14.52;;;8.82;;
28353;SDS011;15603;50.878;8.036;2023-05-08T04:30:21;11.80;;;8.18;;
28353;SDS011;15603;50.878;8.036;2023-05-08T04:32:49;11.85;;;7.75;;
28353;SDS011;15603;50.878;8.036;2023-05-08T04:35:16;12.23;;;8.80;;
28353;SDS011;15603;50.878;8.036;2023-05-08T04:37:44;12.05;;;8.82;;
28353;SDS011;15603;50.878;8.036;2023-05-08T04:40:14;11.20;;;8.43;;
28353;SDS011;15603;50.878;8.036;2023-05-08T04:42:41;14.57;;;8.70;;
28353;SDS011;15603;50.878;8.036;2023-05-08T04:45:09;12.88;;;8.02;;
28353;SDS011;15603;50.878;8.036;2023-05-08T04:47:37;12.60;;;7.70;;
28353;SDS011;15603;50.878;8.036;2023-05-08T04:50:04;17.13;;;8.13;;
28353;SDS011;15603;50.878;8.036;2023-05-08T04:52:33;13.52;;;9.32;;
28353;SDS011;15603;50.878;8.036;2023-05-08T04:55:00;13.23;;;8.32;;
28353;SDS011;15603;50.878;8.036;2023-05-08T04:57:29;13.77;;;8.55;;
28353;SDS011;15603;50.878;8.036;2023-05-08T04:59:56;11.52;;;8.65;;
28353;SDS011;15603;50.878;8.036;2023-05-08T05:02:26;14.68;;;8.23;;
28353;SDS011;15603;50.878;8.036;2023-05-08T05:04:54;12.25;;;8.32;;
28353;SDS011;15603;50.878;8.036;2023-05-08T05:07:24;16.88;;;8.73;;
28353;SDS011;15603;50.878;8.036;2023-05-08T05:09:52;15.48;;;9.07;;
28353;SDS011;15603;50.878;8.036;2023-05-08T05:12:19;12.48;;;8.27;;
28353;SDS011;15603;50.878;8.036;2023-05-08T05:14:46;15.73;;;9.50;;
28353;SDS011;15603;50.878;8.036;2023-05-08T05:17:14;13.68;;;9.35;;
28353;SDS011;15603;50.878;8.036;2023-05-08T05:19:41;13.27;;;8.88;;
28353;SDS011;15603;50.878;8.036;2023-05-08T05:22:08;11.95;;;8.48;;
28353;SDS011;15603;50.878;8.036;2023-05-08T05:24:35;14.45;;;10.15;;
28353;SDS011;15603;50.878;8.036;2023-05-08T05:27:02;16.75;;;8.63;;
28353;SDS011;15603;50.878;8.036;2023-05-08T05:29:30;12.57;;;8.18;;
28353;SDS011;15603;50.878;8.036;2023-05-08T05:31:58;13.07;;;7.78;;
28353;SDS011;15603;50.878;8.036;2023-05-08T05:34:25;11.70;;;8.68;;
28353;SDS011;15603;50.878;8.036;2023-05-08T05:36:52;11.32;;;8.52;;
28353;SDS011;15603;50.878;8.036;2023-05-08T05:39:19;13.73;;;8.98;;
28353;SDS011;15603;50.878;8.036;2023-05-08T05:41:47;12.73;;;8.90;;
28353;SDS011;15603;50.878;8.036;2023-05-08T05:44:14;15.88;;;9.40;;
28353;SDS011;15603;50.878;8.036;2023-05-08T05:46:41;13.40;;;8.95;;
28353;SDS011;15603;50.878;8.036;2023-05-08T05:49:10;16.48;;;8.85;;
28353;SDS011;15603;50.878;8.036;2023-05-08T05:51:38;12.23;;;9.10;;
28353;SDS011;15603;50.878;8.036;2023-05-08T05:54:05;13.45;;;8.85;;
28353;SDS011;15603;50.878;8.036;2023-05-08T05:56:33;11.80;;;8.38;;
28353;SDS011;15603;50.878;8.036;2023-05-08T05:59:00;20.15;;;9.40;;
28353;SDS011;15603;50.878;8.036;2023-05-08T06:01:28;12.48;;;8.70;;
28353;SDS011;15603;50.878;8.036;2023-05-08T06:03:55;13.98;;;9.73;;
28353;SDS011;15603;50.878;8.036;2023-05-08T06:06:22;15.73;;;8.95;;
28353;SDS011;15603;50.878;8.036;2023-05-08T06:08:50;11.65;;;8.18;;
28353;SDS011;15603;50.878;8.036;2023-05-08T06:11:17;13.40;;;8.65;;
28353;SDS011;15603;50.878;8.036;2023-05-08T06:13:45;15.25;;;8.95;;
28353;SDS011;15603;50.878;8.036;2023-05-08T06:16:14;15.38;;;9.73;;
28353;SDS011;15603;50.878;8.036;2023-05-08T06:18:41;13.35;;;8.88;;
28353;SDS011;15603;50.878;8.036;2023-05-08T06:21:08;12.70;;;8.43;;
28353;SDS011;15603;50.878;8.036;2023-05-08T06:23:35;14.73;;;8.15;;
28353;SDS011;15603;50.878;8.036;2023-05-08T06:26:02;15.18;;;8.85;;
28353;SDS011;15603;50.878;8.036;2023-05-08T06:28:30;12.40;;;8.55;;
28353;SDS011;15603;50.878;8.036;2023-05-08T06:30:57;12.43;;;8.98;;
28353;SDS011;15603;50.878;8.036;2023-05-08T06:33:24;18.30;;;8.52;;
28353;SDS011;15603;50.878;8.036;2023-05-08T06:35:52;12.48;;;8.93;;
28353;SDS011;15603;50.878;8.036;2023-05-08T06:38:20;17.98;;;9.23;;
28353;SDS011;15603;50.878;8.036;2023-05-08T06:40:47;16.15;;;8.45;;
28353;SDS011;15603;50.878;8.036;2023-05-08T06:43:16;10.80;;;8.18;;
28353;SDS011;15603;50.878;8.036;2023-05-08T06:45:43;16.73;;;9.52;;
28353;SDS011;15603;50.878;8.036;2023-05-08T06:48:11;10.70;;;7.72;;
28353;SDS011;15603;50.878;8.036;2023-05-08T06:50:38;12.25;;;8.48;;
28353;SDS011;15603;50.878;8.036;2023-05-08T06:53:06;12.50;;;8.98;;
28353;SDS011;15603;50.878;8.036;2023-05-08T06:55:33;14.57;;;8.32;;
28353;SDS011;15603;50.878;8.036;2023-05-08T06:58:00;16.95;;;8.48;;
28353;SDS011;15603;50.878;8.036;2023-05-08T07:00:27;13.05;;;8.40;;
28353;SDS011;15603;50.878;8.036;2023-05-08T07:02:54;11.20;;;8.88;;
28353;SDS011;15603;50.878;8.036;2023-05-08T07:05:22;11.95;;;8.10;;
28353;SDS011;15603;50.878;8.036;2023-05-08T07:07:49;11.73;;;7.88;;
28353;SDS011;15603;50.878;8.036;2023-05-08T07:10:16;11.00;;;7.35;;
28353;SDS011;15603;50.878;8.036;2023-05-08T07:12:45;10.73;;;7.45;;
28353;SDS011;15603;50.878;8.036;2023-05-08T07:15:12;11.98;;;7.75;;
28353;SDS011;15603;50.878;8.036;2023-05-08T07:17:52;14.48;;;8.85;;
28353;SDS011;15603;50.878;8.036;2023-05-08T07:20:19;13.27;;;7.03;;
28353;SDS011;15603;50.878;8.036;2023-05-08T07:22:47;13.95;;;7.63;;
28353;SDS011;15603;50.878;8.036;2023-05-08T07:25:14;14.73;;;6.82;;
28353;SDS011;15603;50.878;8.036;2023-05-08T07:27:42;13.10;;;7.43;;
28353;SDS011;15603;50.878;8.036;2023-05-08T07:30:09;10.40;;;6.90;;
28353;SDS011;15603;50.878;8.036;2023-05-08T07:32:37;8.25;;;6.78;;
28353;SDS011;15603;50.878;8.036;2023-05-08T07:35:05;10.82;;;7.90;;
28353;SDS011;15603;50.878;8.036;2023-05-08T07:37:40;10.95;;;7.60;;
28353;SDS011;15603;50.878;8.036;2023-05-08T07:40:07;10.73;;;7.43;;
28353;SDS011;15603;50.878;8.036;2023-05-08T07:42:40;11.05;;;7.00;;
28353;SDS011;15603;50.878;8.036;2023-05-08T07:45:08;13.85;;;7.60;;
28353;SDS011;15603;50.878;8.036;2023-05-08T07:47:38;12.15;;;6.85;;
28353;SDS011;15603;50.878;8.036;2023-05-08T07:50:13;9.68;;;6.95;;
28353;SDS011;15603;50.878;8.036;2023-05-08T07:52:40;9.90;;;6.13;;
28353;SDS011;15603;50.878;8.036;2023-05-08T07:55:08;13.65;;;7.25;;
28353;SDS011;15603;50.878;8.036;2023-05-08T07:57:36;10.48;;;7.70;;
28353;SDS011;15603;50.878;8.036;2023-05-08T08:00:04;9.27;;;6.13;;
28353;SDS011;15603;50.878;8.036;2023-05-08T08:02:39;12.23;;;7.13;;
28353;SDS011;15603;50.878;8.036;2023-05-08T08:05:07;9.02;;;6.22;;
28353;SDS011;15603;50.878;8.036;2023-05-08T08:07:34;9.35;;;5.88;;
28353;SDS011;15603;50.878;8.036;2023-05-08T08:10:02;9.50;;;5.80;;
28353;SDS011;15603;50.878;8.036;2023-05-08T08:12:30;13.57;;;7.00;;
28353;SDS011;15603;50.878;8.036;2023-05-08T08:14:57;11.82;;;6.38;;
28353;SDS011;15603;50.878;8.036;2023-05-08T08:17:24;9.25;;;5.95;;
28353;SDS011;15603;50.878;8.036;2023-05-08T08:19:54;8.95;;;6.35;;
28353;SDS011;15603;50.878;8.036;2023-05-08T08:22:22;7.15;;;5.43;;
28353;SDS011;15603;50.878;8.036;2023-05-08T08:24:50;9.40;;;6.30;;
28353;SDS011;15603;50.878;8.036;2023-05-08T08:27:20;7.93;;;6.07;;
28353;SDS011;15603;50.878;8.036;2023-05-08T08:29:48;7.95;;;5.88;;
28353;SDS011;15603;50.878;8.036;2023-05-08T08:32:18;12.85;;;6.28;;
28353;SDS011;15603;50.878;8.036;2023-05-08T08:34:45;7.53;;;5.60;;
28353;SDS011;15603;50.878;8.036;2023-05-08T08:37:12;14.07;;;5.88;;
28353;SDS011;15603;50.878;8.036;2023-05-08T08:39:39;15.40;;;6.60;;
28353;SDS011;15603;50.878;8.036;2023-05-08T08:42:07;7.85;;;5.63;;
28353;SDS011;15603;50.878;8.036;2023-05-08T08:44:34;13.02;;;6.18;;
28353;SDS011;15603;50.878;8.036;2023-05-08T08:47:02;12.30;;;6.05;;
28353;SDS011;15603;50.878;8.036;2023-05-08T08:49:33;9.90;;;5.47;;
28353;SDS011;15603;50.878;8.036;2023-05-08T08:52:02;10.30;;;5.85;;
28353;SDS011;15603;50.878;8.036;2023-05-08T08:54:36;16.50;;;6.22;;
28353;SDS011;15603;50.878;8.036;2023-05-08T08:57:06;39.83;;;9.50;;
28353;SDS011;15603;50.878;8.036;2023-05-08T08:59:36;7.53;;;6.00;;
28353;SDS011;15603;50.878;8.036;2023-05-08T09:02:11;10.75;;;5.85;;
28353;SDS011;15603;50.878;8.036;2023-05-08T09:04:43;12.13;;;5.93;;
28353;SDS011;15603;50.878;8.036;2023-05-08T09:07:11;8.00;;;6.22;;
28353;SDS011;15603;50.878;8.036;2023-05-08T09:09:38;9.63;;;6.03;;
28353;SDS011;15603;50.878;8.036;2023-05-08T09:12:11;9.10;;;6.25;;
28353;SDS011;15603;50.878;8.036;2023-05-08T09:14:38;9.35;;;6.57;;
28353;SDS011;15603;50.878;8.036;2023-05-08T09:17:06;10.07;;;5.57;;
28353;SDS011;15603;50.878;8.036;2023-05-08T09:19:33;8.27;;;5.60;;
28353;SDS011;15603;50.878;8.036;2023-05-08T09:22:00;6.78;;;4.75;;
28353;SDS011;15603;50.878;8.036;2023-05-08T09:27:26;8.55;;;4.95;;
28353;SDS011;15603;50.878;8.036;2023-05-08T09:30:06;13.43;;;6.28;;
28353;SDS011;15603;50.878;8.036;2023-05-08T09:32:39;8.10;;;5.05;;
28353;SDS011;15603;50.878;8.036;2023-05-08T09:35:08;10.93;;;5.32;;
28353;SDS011;15603;50.878;8.036;2023-05-08T09:37:40;8.68;;;4.80;;
28353;SDS011;15603;50.878;8.036;2023-05-08T09:40:12;9.27;;;4.95;;
28353;SDS011;15603;50.878;8.036;2023-05-08T09:42:40;10.15;;;5.43;;
28353;SDS011;15603;50.878;8.036;2023-05-08T09:45:08;10.70;;;5.47;;
28353;SDS011;15603;50.878;8.036;2023-05-08T09:47:35;8.27;;;4.72;;
28353;SDS011;15603;50.878;8.036;2023-05-08T09:50:06;7.28;;;4.70;;
28353;SDS011;15603;50.878;8.036;2023-05-08T09:52:36;7.30;;;5.28;;
28353;SDS011;15603;50.878;8.036;2023-05-08T09:55:05;9.10;;;4.82;;
28353;SDS011;15603;50.878;8.036;2023-05-08T09:57:34;8.52;;;5.05;;
28353;SDS011;15603;50.878;8.036;2023-05-08T10:00:05;8.43;;;4.82;;
28353;SDS011;15603;50.878;8.036;2023-05-08T10:02:37;8.13;;;4.95;;
28353;SDS011;15603;50.878;8.036;2023-05-08T10:05:52;12.95;;;5.28;;
28353;SDS011;15603;50.878;8.036;2023-05-08T10:10:47;11.55;;;4.95;;
28353;SDS011;15603;50.878;8.036;2023-05-08T10:13:15;5.80;;;4.53;;
28353;SDS011;15603;50.878;8.036;2023-05-08T10:15:42;7.40;;;5.88;;
28353;SDS011;15603;50.878;8.036;2023-05-08T10:18:10;7.75;;;5.15;;
28353;SDS011;15603;50.878;8.036;2023-05-08T10:20:38;10.32;;;4.80;;
28353;SDS011;15603;50.878;8.036;2023-05-08T10:23:07;6.93;;;4.68;;
28353;SDS011;15603;50.878;8.036;2023-05-08T10:25:51;6.80;;;4.78;;
28353;SDS011;15603;50.878;8.036;2023-05-08T10:31:08;9.35;;;4.97;;
28353;SDS011;15603;50.878;8.036;2023-05-08T10:33:39;8.68;;;4.80;;
28353;SDS011;15603;50.878;8.036;2023-05-08T10:36:07;11.82;;;5.07;;
28353;SDS011;15603;50.878;8.036;2023-05-08T10:38:36;17.58;;;5.20;;
28353;SDS011;15603;50.878;8.036;2023-05-08T10:41:03;10.05;;;5.32;;
28353;SDS011;15603;50.878;8.036;2023-05-08T10:43:31;10.27;;;5.55;;
28353;SDS011;15603;50.878;8.036;2023-05-08T10:46:01;10.45;;;5.05;;
28353;SDS011;15603;50.878;8.036;2023-05-08T10:51:25;11.38;;;5.18;;
28353;SDS011;15603;50.878;8.036;2023-05-08T10:54:18;11.40;;;5.15;;
28353;SDS011;15603;50.878;8.036;2023-05-08T10:57:09;10.38;;;5.38;;
28353;SDS011;15603;50.878;8.036;2023-05-08T10:59:37;11.68;;;4.75;;
28353;SDS011;15603;50.878;8.036;2023-05-08T11:02:10;7.97;;;4.82;;
28353;SDS011;15603;50.878;8.036;2023-05-08T11:04:37;9.13;;;4.97;;
28353;SDS011;15603;50.878;8.036;2023-05-08T11:07:04;9.38;;;5.70;;
28353;SDS011;15603;50.878;8.036;2023-05-08T11:14:59;10.27;;;4.85;;
28353;SDS011;15603;50.878;8.036;2023-05-08T11:19:59;6.55;;;5.20;;
28353;SDS011;15603;50.878;8.036;2023-05-08T11:22:35;6.80;;;4.57;;
28353;SDS011;15603;50.878;8.036;2023-05-08T11:25:09;12.10;;;5.18;;
28353;SDS011;15603;50.878;8.036;2023-05-08T11:30:23;9.90;;;5.35;;
28353;SDS011;15603;50.878;8.036;2023-05-08T11:35:45;7.45;;;5.18;;
28353;SDS011;15603;50.878;8.036;2023-05-08T11:41:07;7.65;;;4.80;;
28353;SDS011;15603;50.878;8.036;2023-05-08T11:46:48;7.63;;;5.63;;
28353;SDS011;15603;50.878;8.036;2023-05-08T11:49:18;7.43;;;5.15;;
28353;SDS011;15603;50.878;8.036;2023-05-08T11:51:54;6.30;;;4.60;;
28353;SDS011;15603;50.878;8.036;2023-05-08T11:54:24;8.68;;;4.47;;
28353;SDS011;15603;50.878;8.036;2023-05-08T11:56:55;11.82;;;4.90;;
28353;SDS011;15603;50.878;8.036;2023-05-08T11:59:23;7.57;;;4.70;;
28353;SDS011;15603;50.878;8.036;2023-05-08T12:01:50;17.20;;;6.05;;
28353;SDS011;15603;50.878;8.036;2023-05-08T12:04:20;11.75;;;6.85;;
28353;SDS011;15603;50.878;8.036;2023-05-08T12:06:48;11.80;;;4.80;;
28353;SDS011;15603;50.878;8.036;2023-05-08T12:09:17;7.15;;;4.88;;
28353;SDS011;15603;50.878;8.036;2023-05-08T12:11:46;8.30;;;4.40;;
28353;SDS011;15603;50.878;8.036;2023-05-08T12:14:15;5.80;;;4.70;;
28353;SDS011;15603;50.878;8.036;2023-05-08T12:16:43;8.93;;;4.18;;
28353;SDS011;15603;50.878;8.036;2023-05-08T12:19:11;6.15;;;4.22;;
28353;SDS011;15603;50.878;8.036;2023-05-08T12:21:48;12.48;;;4.35;;
28353;SDS011;15603;50.878;8.036;2023-05-08T12:24:15;6.95;;;3.72;;
28353;SDS011;15603;50.878;8.036;2023-05-08T12:26:52;9.82;;;4.30;;
28353;SDS011;15603;50.878;8.036;2023-05-08T12:29:21;6.72;;;3.92;;
28353;SDS011;15603;50.878;8.036;2023-05-08T12:31:49;6.32;;;4.30;;
28353;SDS011;15603;50.878;8.036;2023-05-08T12:34:16;7.10;;;4.20;;
28353;SDS011;15603;50.878;8.036;2023-05-08T12:36:44;7.53;;;4.13;;
28353;SDS011;15603;50.878;8.036;2023-05-08T12:39:12;6.55;;;4.07;;
28353;SDS011;15603;50.878;8.036;2023-05-08T12:41:49;6.18;;;4.32;;
28353;SDS011;15603;50.878;8.036;2023-05-08T12:44:19;6.68;;;4.88;;
28353;SDS011;15603;50.878;8.036;2023-05-08T12:46:49;10.60;;;5.10;;
28353;SDS011;15603;50.878;8.036;2023-05-08T12:49:27;7.45;;;4.18;;
28353;SDS011;15603;50.878;8.036;2023-05-08T12:52:08;8.57;;;4.43;;
28353;SDS011;15603;50.878;8.036;2023-05-08T12:54:39;10.27;;;4.97;;
28353;SDS011;15603;50.878;8.036;2023-05-08T12:57:12;7.20;;;4.40;;
28353;SDS011;15603;50.878;8.036;2023-05-08T12:59:40;6.57;;;4.38;;
28353;SDS011;15603;50.878;8.036;2023-05-08T13:02:15;7.10;;;3.70;;
28353;SDS011;15603;50.878;8.036;2023-05-08T13:04:44;10.30;;;4.72;;
28353;SDS011;15603;50.878;8.036;2023-05-08T13:07:11;9.88;;;3.72;;
28353;SDS011;15603;50.878;8.036;2023-05-08T13:09:39;7.22;;;3.42;;
28353;SDS011;15603;50.878;8.036;2023-05-08T13:12:20;11.03;;;4.10;;
28353;SDS011;15603;50.878;8.036;2023-05-08T13:14:47;7.55;;;3.60;;
28353;SDS011;15603;50.878;8.036;2023-05-08T13:17:17;7.75;;;4.10;;
28353;SDS011;15603;50.878;8.036;2023-05-08T13:19:45;7.45;;;3.63;;
28353;SDS011;15603;50.878;8.036;2023-05-08T13:22:12;6.93;;;4.50;;
28353;SDS011;15603;50.878;8.036;2023-05-08T13:24:39;9.00;;;4.18;;
28353;SDS011;15603;50.878;8.036;2023-05-08T13:27:06;10.38;;;4.68;;
28353;SDS011;15603;50.878;8.036;2023-05-08T13:29:33;13.00;;;4.60;;
28353;SDS011;15603;50.878;8.036;2023-05-08T13:32:00;5.53;;;4.20;;
28353;SDS011;15603;50.878;8.036;2023-05-08T13:34:27;7.57;;;3.90;;
28353;SDS011;15603;50.878;8.036;2023-05-08T13:36:54;8.98;;;4.32;;
28353;SDS011;15603;50.878;8.036;2023-05-08T13:39:21;14.77;;;4.10;;
28353;SDS011;15603;50.878;8.036;2023-05-08T13:41:48;6.45;;;4.40;;
28353;SDS011;15603;50.878;8.036;2023-05-08T13:44:15;6.60;;;3.60;;
28353;SDS011;15603;50.878;8.036;2023-05-08T13:46:42;8.05;;;3.90;;
28353;SDS011;15603;50.878;8.036;2023-05-08T13:49:09;11.20;;;4.03;;
28353;SDS011;15603;50.878;8.036;2023-05-08T13:51:37;7.00;;;4.22;;
28353;SDS011;15603;50.878;8.036;2023-05-08T13:54:04;13.07;;;3.95;;
28353;SDS011;15603;50.878;8.036;2023-05-08T13:56:31;13.88;;;3.72;;
28353;SDS011;15603;50.878;8.036;2023-05-08T13:58:58;12.65;;;3.60;;
28353;SDS011;15603;50.878;8.036;2023-05-08T14:01:25;5.25;;;3.60;;
28353;SDS011;15603;50.878;8.036;2023-05-08T14:03:53;4.97;;;3.90;;
28353;SDS011;15603;50.878;8.036;2023-05-08T14:06:21;5.50;;;3.78;;
28353;SDS011;15603;50.878;8.036;2023-05-08T14:08:48;6.68;;;4.25;;
28353;SDS011;15603;50.878;8.036;2023-05-08T14:11:35;6.00;;;3.70;;
28353;SDS011;15603;50.878;8.036;2023-05-08T14:14:02;7.90;;;4.22;;
28353;SDS011;15603;50.878;8.036;2023-05-08T14:16:29;8.88;;;5.45;;
28353;SDS011;15603;50.878;8.036;2023-05-08T14:18:56;10.85;;;3.92;;
28353;SDS011;15603;50.878;8.036;2023-05-08T14:21:24;6.43;;;3.90;;
28353;SDS011;15603;50.878;8.036;2023-05-08T14:23:52;6.47;;;4.10;;
28353;SDS011;15603;50.878;8.036;2023-05-08T14:26:19;8.35;;;3.85;;
28353;SDS011;15603;50.878;8.036;2023-05-08T14:28:47;6.05;;;4.20;;
28353;SDS011;15603;50.878;8.036;2023-05-08T14:31:14;6.05;;;4.15;;
28353;SDS011;15603;50.878;8.036;2023-05-08T14:33:41;5.57;;;3.47;;
28353;SDS011;15603;50.878;8.036;2023-05-08T14:36:09;4.18;;;3.47;;
28353;SDS011;15603;50.878;8.036;2023-05-08T14:38:36;6.22;;;4.00;;
28353;SDS011;15603;50.878;8.036;2023-05-08T14:41:03;6.25;;;3.78;;
28353;SDS011;15603;50.878;8.036;2023-05-08T14:43:30;4.22;;;3.08;;
28353;SDS011;15603;50.878;8.036;2023-05-08T14:45:57;6.15;;;3.20;;
28353;SDS011;15603;50.878;8.036;2023-05-08T14:48:25;7.93;;;3.00;;
28353;SDS011;15603;50.878;8.036;2023-05-08T14:50:53;5.78;;;3.05;;
28353;SDS011;15603;50.878;8.036;2023-05-08T14:53:22;5.30;;;2.30;;
28353;SDS011;15603;50.878;8.036;2023-05-08T14:55:49;4.32;;;2.60;;
28353;SDS011;15603;50.878;8.036;2023-05-08T14:58:18;7.32;;;2.88;;
28353;SDS011;15603;50.878;8.036;2023-05-08T15:00:45;4.35;;;2.45;;
28353;SDS011;15603;50.878;8.036;2023-05-08T15:03:12;3.42;;;2.53;;
28353;SDS011;15603;50.878;8.036;2023-05-08T15:05:39;3.20;;;2.08;;
28353;SDS011;15603;50.878;8.036;2023-05-08T15:08:06;2.97;;;2.42;;
28353;SDS011;15603;50.878;8.036;2023-05-08T15:10:35;5.25;;;2.40;;
28353;SDS011;15603;50.878;8.036;2023-05-08T15:13:02;7.43;;;2.80;;
28353;SDS011;15603;50.878;8.036;2023-05-08T15:15:29;5.82;;;2.63;;
28353;SDS011;15603;50.878;8.036;2023-05-08T15:17:56;3.08;;;2.33;;
28353;SDS011;15603;50.878;8.036;2023-05-08T15:20:23;8.50;;;2.67;;
28353;SDS011;15603;50.878;8.036;2023-05-08T15:22:50;7.85;;;2.40;;
28353;SDS011;15603;50.878;8.036;2023-05-08T15:25:17;7.57;;;2.47;;
28353;SDS011;15603;50.878;8.036;2023-05-08T15:27:45;3.67;;;2.65;;
28353;SDS011;15603;50.878;8.036;2023-05-08T15:30:18;5.57;;;2.60;;
28353;SDS011;15603;50.878;8.036;2023-05-08T15:32:46;3.70;;;2.10;;
28353;SDS011;15603;50.878;8.036;2023-05-08T15:35:13;4.18;;;2.22;;
28353;SDS011;15603;50.878;8.036;2023-05-08T15:37:41;5.18;;;2.47;;
28353;SDS011;15603;50.878;8.036;2023-05-08T15:40:08;10.32;;;2.78;;
28353;SDS011;15603;50.878;8.036;2023-05-08T15:42:35;7.35;;;2.45;;
28353;SDS011;15603;50.878;8.036;2023-05-08T15:45:02;3.13;;;2.33;;
28353;SDS011;15603;50.878;8.036;2023-05-08T15:47:30;2.53;;;1.88;;
28353;SDS011;15603;50.878;8.036;2023-05-08T15:49:57;3.60;;;2.28;;
28353;SDS011;15603;50.878;8.036;2023-05-08T15:52:24;2.90;;;2.05;;
28353;SDS011;15603;50.878;8.036;2023-05-08T15:54:51;3.42;;;2.08;;
28353;SDS011;15603;50.878;8.036;2023-05-08T15:57:18;4.20;;;1.88;;
28353;SDS011;15603;50.878;8.036;2023-05-08T15:59:45;7.45;;;1.95;;